sensor_id;sensor_type;location;lat;lon;timestamp;pressure;altitude;pressure_sealevel;temperature;humidity
62436;BME280;48480;50.252;18.848;2023-02-21T00:01:03;98100.73;;;9.38;63.44
62436;BME280;48480;50.252;18.848;2023-02-21T00:03:46;98102.34;;;9.38;62.98
62436;BME280;48480;50.252;18.848;2023-02-21T00:06:30;98102.02;;;9.38;62.80
62436;BME280;48480;50.252;18.848;2023-02-21T00:09:14;98097.30;;;9.38;62.84
62436;BME280;48480;50.252;18.848;2023-02-21T00:11:57;98103.98;;;9.40;62.89
62436;BME280;48480;50.252;18.848;2023-02-21T00:14:41;98108.80;;;9.40;62.82
62436;BME280;48480;50.252;18.848;2023-02-21T00:17:25;98104.52;;;9.38;62.82
62436;BME280;48480;50.252;18.848;2023-02-21T00:20:09;98104.73;;;9.38;63.07
62436;BME280;48480;50.252;18.848;2023-02-21T00:22:53;98108.63;;;9.38;63.19
62436;BME280;48480;50.252;18.848;2023-02-21T00:25:37;98115.98;;;9.38;63.19
62436;BME280;48480;50.252;18.848;2023-02-21T00:28:21;98120.83;;;9.37;63.28
62436;BME280;48480;50.252;18.848;2023-02-21T00:31:05;98115.19;;;9.35;63.45
62436;BME280;48480;50.252;18.848;2023-02-21T00:33:49;98120.98;;;9.33;63.56
62436;BME280;48480;50.252;18.848;2023-02-21T00:36:34;98119.79;;;9.32;63.77
62436;BME280;48480;50.252;18.848;2023-02-21T00:39:18;98118.91;;;9.33;63.91
62436;BME280;48480;50.252;18.848;2023-02-21T00:42:02;98116.14;;;9.29;64.43
62436;BME280;48480;50.252;18.848;2023-02-21T00:44:46;98110.67;;;9.24;64.67
62436;BME280;48480;50.252;18.848;2023-02-21T00:47:31;98102.00;;;9.21;65.15
62436;BME280;48480;50.252;18.848;2023-02-21T00:50:15;98103.38;;;9.18;65.57
62436;BME280;48480;50.252;18.848;2023-02-21T00:52:59;98096.73;;;9.14;65.67
62436;BME280;48480;50.252;18.848;2023-02-21T00:55:42;98090.86;;;9.11;65.96
62436;BME280;48480;50.252;18.848;2023-02-21T00:58:26;98090.21;;;9.08;66.28
62436;BME280;48480;50.252;18.848;2023-02-21T01:01:10;98092.60;;;9.06;66.74
62436;BME280;48480;50.252;18.848;2023-02-21T01:03:57;98096.40;;;9.02;67.05
62436;BME280;48480;50.252;18.848;2023-02-21T01:06:41;98093.09;;;8.98;67.48
62436;BME280;48480;50.252;18.848;2023-02-21T01:09:25;98095.55;;;8.94;67.95
62436;BME280;48480;50.252;18.848;2023-02-21T01:12:08;98092.92;;;8.91;68.39
62436;BME280;48480;50.252;18.848;2023-02-21T01:14:52;98089.05;;;8.86;68.87
62436;BME280;48480;50.252;18.848;2023-02-21T01:17:36;98086.21;;;8.79;69.30
62436;BME280;48480;50.252;18.848;2023-02-21T01:20:20;98087.77;;;8.76;69.49
62436;BME280;48480;50.252;18.848;2023-02-21T01:23:04;98081.08;;;8.74;69.87
62436;BME280;48480;50.252;18.848;2023-02-21T01:25:48;98084.82;;;8.70;70.15
62436;BME280;48480;50.252;18.848;2023-02-21T01:28:31;98090.10;;;8.67;70.41
62436;BME280;48480;50.252;18.848;2023-02-21T01:31:19;98087.02;;;8.65;71.07
62436;BME280;48480;50.252;18.848;2023-02-21T01:34:04;98084.17;;;8.63;71.36
62436;BME280;48480;50.252;18.848;2023-02-21T01:36:48;98081.55;;;8.61;71.62
62436;BME280;48480;50.252;18.848;2023-02-21T01:39:32;98071.79;;;8.56;72.15
62436;BME280;48480;50.252;18.848;2023-02-21T01:42:16;98071.48;;;8.50;72.67
62436;BME280;48480;50.252;18.848;2023-02-21T01:48:11;98062.59;;;8.39;73.57
62436;BME280;48480;50.252;18.848;2023-02-21T01:50:57;98061.92;;;8.35;73.88
62436;BME280;48480;50.252;18.848;2023-02-21T01:53:42;98055.98;;;8.32;74.11
62436;BME280;48480;50.252;18.848;2023-02-21T01:56:27;98053.01;;;8.29;74.44
62436;BME280;48480;50.252;18.848;2023-02-21T01:59:12;98053.66;;;8.27;74.65
62436;BME280;48480;50.252;18.848;2023-02-21T02:02:19;98052.61;;;8.26;74.84
62436;BME280;48480;50.252;18.848;2023-02-21T02:05:08;98050.02;;;8.24;75.26
62436;BME280;48480;50.252;18.848;2023-02-21T02:07:54;98045.66;;;8.22;75.30
62436;BME280;48480;50.252;18.848;2023-02-21T02:10:40;98045.74;;;8.21;75.75
62436;BME280;48480;50.252;18.848;2023-02-21T02:13:37;98047.16;;;8.18;76.07
62436;BME280;48480;50.252;18.848;2023-02-21T02:21:37;98043.98;;;8.13;76.72
62436;BME280;48480;50.252;18.848;2023-02-21T02:24:39;98046.71;;;8.09;76.93
62436;BME280;48480;50.252;18.848;2023-02-21T02:27:30;98048.46;;;8.07;77.13
62436;BME280;48480;50.252;18.848;2023-02-21T02:35:45;98046.36;;;8.06;78.08
62436;BME280;48480;50.252;18.848;2023-02-21T02:38:35;98047.67;;;8.03;79.06
62436;BME280;48480;50.252;18.848;2023-02-21T02:41:06;98052.73;;;7.97;80.13
62436;BME280;48480;50.252;18.848;2023-02-21T02:43:49;98057.18;;;7.89;80.96
62436;BME280;48480;50.252;18.848;2023-02-21T02:46:29;98057.23;;;7.80;81.72
62436;BME280;48480;50.252;18.848;2023-02-21T02:49:06;98059.66;;;7.71;82.52
62436;BME280;48480;50.252;18.848;2023-02-21T02:51:34;98055.45;;;7.63;83.38
62436;BME280;48480;50.252;18.848;2023-02-21T02:54:01;98043.91;;;7.50;83.92
62436;BME280;48480;50.252;18.848;2023-02-21T02:56:26;98054.41;;;7.48;84.79
62436;BME280;48480;50.252;18.848;2023-02-21T02:58:57;98052.08;;;7.41;85.46
62436;BME280;48480;50.252;18.848;2023-02-21T03:02:03;98051.88;;;7.35;85.79
62436;BME280;48480;50.252;18.848;2023-02-21T03:12:59;98048.31;;;7.19;87.96
62436;BME280;48480;50.252;18.848;2023-02-21T03:18:30;98052.59;;;7.16;88.24
62436;BME280;48480;50.252;18.848;2023-02-21T03:21:00;98051.09;;;7.14;88.82
62436;BME280;48480;50.252;18.848;2023-02-21T03:23:28;98051.05;;;7.11;89.05
62436;BME280;48480;50.252;18.848;2023-02-21T03:25:57;98052.34;;;7.09;89.17
62436;BME280;48480;50.252;18.848;2023-02-21T03:28:24;98049.27;;;7.08;89.36
62436;BME280;48480;50.252;18.848;2023-02-21T03:30:52;98050.54;;;7.08;89.38
62436;BME280;48480;50.252;18.848;2023-02-21T03:33:20;98054.63;;;7.09;89.53
62436;BME280;48480;50.252;18.848;2023-02-21T03:35:46;98058.10;;;7.07;90.00
62436;BME280;48480;50.252;18.848;2023-02-21T03:38:12;98055.39;;;7.04;90.19
62436;BME280;48480;50.252;18.848;2023-02-21T03:40:37;98052.34;;;7.04;90.43
62436;BME280;48480;50.252;18.848;2023-02-21T03:43:04;98049.38;;;7.06;90.31
62436;BME280;48480;50.252;18.848;2023-02-21T03:45:34;98049.88;;;7.07;90.60
62436;BME280;48480;50.252;18.848;2023-02-21T03:48:00;98051.65;;;7.04;90.81
62436;BME280;48480;50.252;18.848;2023-02-21T03:50:25;98046.10;;;7.01;91.09
62436;BME280;48480;50.252;18.848;2023-02-21T03:52:51;98052.67;;;6.99;91.52
62436;BME280;48480;50.252;18.848;2023-02-21T03:55:17;98054.57;;;6.97;91.51
62436;BME280;48480;50.252;18.848;2023-02-21T03:57:43;98054.79;;;6.95;91.73
62436;BME280;48480;50.252;18.848;2023-02-21T04:00:09;98052.22;;;6.93;91.91
62436;BME280;48480;50.252;18.848;2023-02-21T04:02:35;98053.19;;;6.92;92.06
62436;BME280;48480;50.252;18.848;2023-02-21T04:05:01;98052.88;;;6.92;92.10
62436;BME280;48480;50.252;18.848;2023-02-21T04:07:26;98054.16;;;6.92;92.24
62436;BME280;48480;50.252;18.848;2023-02-21T04:09:52;98048.94;;;6.91;92.46
62436;BME280;48480;50.252;18.848;2023-02-21T04:12:17;98056.11;;;6.90;92.66
62436;BME280;48480;50.252;18.848;2023-02-21T04:14:42;98052.27;;;6.90;92.47
62436;BME280;48480;50.252;18.848;2023-02-21T04:17:08;98059.18;;;6.89;92.55
62436;BME280;48480;50.252;18.848;2023-02-21T04:19:33;98054.92;;;6.88;92.86
62436;BME280;48480;50.252;18.848;2023-02-21T04:21:59;98057.98;;;6.88;92.70
62436;BME280;48480;50.252;18.848;2023-02-21T04:24:24;98052.93;;;6.89;92.70
62436;BME280;48480;50.252;18.848;2023-02-21T04:26:50;98051.58;;;6.91;92.68
62436;BME280;48480;50.252;18.848;2023-02-21T04:29:16;98055.47;;;6.93;92.55
62436;BME280;48480;50.252;18.848;2023-02-21T04:31:41;98054.30;;;6.95;92.52
62436;BME280;48480;50.252;18.848;2023-02-21T04:34:07;98056.23;;;6.97;92.48
62436;BME280;48480;50.252;18.848;2023-02-21T04:36:32;98052.27;;;6.98;92.32
62436;BME280;48480;50.252;18.848;2023-02-21T04:38:58;98051.36;;;6.98;92.06
62436;BME280;48480;50.252;18.848;2023-02-21T04:41:23;98051.31;;;6.97;92.12
62436;BME280;48480;50.252;18.848;2023-02-21T04:43:49;98053.27;;;6.95;92.27
62436;BME280;48480;50.252;18.848;2023-02-21T04:46:17;98052.67;;;6.94;92.46
62436;BME280;48480;50.252;18.848;2023-02-21T04:48:44;98049.33;;;6.93;92.35
62436;BME280;48480;50.252;18.848;2023-02-21T04:51:11;98054.07;;;6.93;92.35
62436;BME280;48480;50.252;18.848;2023-02-21T04:53:38;98052.90;;;6.93;92.44
62436;BME280;48480;50.252;18.848;2023-02-21T04:56:03;98055.10;;;6.93;92.48
62436;BME280;48480;50.252;18.848;2023-02-21T04:58:29;98062.11;;;6.91;92.45
62436;BME280;48480;50.252;18.848;2023-02-21T05:00:55;98064.64;;;6.90;92.65
62436;BME280;48480;50.252;18.848;2023-02-21T05:03:20;98061.13;;;6.90;92.50
62436;BME280;48480;50.252;18.848;2023-02-21T05:05:46;98064.07;;;6.89;92.51
62436;BME280;48480;50.252;18.848;2023-02-21T05:08:11;98067.10;;;6.88;92.63
62436;BME280;48480;50.252;18.848;2023-02-21T05:10:37;98062.89;;;6.87;92.80
62436;BME280;48480;50.252;18.848;2023-02-21T05:13:02;98066.33;;;6.89;92.67
62436;BME280;48480;50.252;18.848;2023-02-21T05:15:27;98065.53;;;6.91;92.72
62436;BME280;48480;50.252;18.848;2023-02-21T05:17:53;98065.09;;;6.94;92.53
62436;BME280;48480;50.252;18.848;2023-02-21T05:20:18;98062.90;;;6.95;92.56
62436;BME280;48480;50.252;18.848;2023-02-21T05:22:44;98067.62;;;6.89;92.72
62436;BME280;48480;50.252;18.848;2023-02-21T05:25:17;98073.26;;;6.92;92.66
62436;BME280;48480;50.252;18.848;2023-02-21T05:27:43;98067.42;;;6.92;92.83
62436;BME280;48480;50.252;18.848;2023-02-21T05:30:10;98065.98;;;6.94;92.88
62436;BME280;48480;50.252;18.848;2023-02-21T05:32:35;98065.34;;;6.95;92.64
62436;BME280;48480;50.252;18.848;2023-02-21T05:35:01;98068.43;;;6.93;92.68
62436;BME280;48480;50.252;18.848;2023-02-21T05:37:26;98070.83;;;6.90;92.84
62436;BME280;48480;50.252;18.848;2023-02-21T05:39:52;98067.98;;;6.88;92.98
62436;BME280;48480;50.252;18.848;2023-02-21T05:42:17;98067.52;;;6.88;93.07
62436;BME280;48480;50.252;18.848;2023-02-21T05:44:46;98068.16;;;6.88;93.16
62436;BME280;48480;50.252;18.848;2023-02-21T05:47:13;98068.66;;;6.87;93.31
62436;BME280;48480;50.252;18.848;2023-02-21T05:49:40;98067.58;;;6.88;93.51
62436;BME280;48480;50.252;18.848;2023-02-21T05:52:06;98067.80;;;6.88;93.51
62436;BME280;48480;50.252;18.848;2023-02-21T05:54:32;98072.33;;;6.87;93.64
62436;BME280;48480;50.252;18.848;2023-02-21T05:56:58;98072.38;;;6.88;93.59
62436;BME280;48480;50.252;18.848;2023-02-21T05:59:23;98077.09;;;6.89;93.58
62436;BME280;48480;50.252;18.848;2023-02-21T06:01:50;98073.50;;;6.88;93.46
62436;BME280;48480;50.252;18.848;2023-02-21T06:04:16;98077.09;;;6.89;93.39
62436;BME280;48480;50.252;18.848;2023-02-21T06:06:42;98074.11;;;6.89;93.58
62436;BME280;48480;50.252;18.848;2023-02-21T06:09:08;98070.65;;;6.89;93.57
62436;BME280;48480;50.252;18.848;2023-02-21T06:11:35;98069.23;;;6.90;93.59
62436;BME280;48480;50.252;18.848;2023-02-21T06:14:04;98071.60;;;6.92;93.59
62436;BME280;48480;50.252;18.848;2023-02-21T06:16:34;98071.35;;;6.93;93.65
62436;BME280;48480;50.252;18.848;2023-02-21T06:19:00;98070.95;;;6.94;93.62
62436;BME280;48480;50.252;18.848;2023-02-21T06:21:26;98073.13;;;6.95;93.53
62436;BME280;48480;50.252;18.848;2023-02-21T06:23:52;98075.77;;;6.96;93.57
62436;BME280;48480;50.252;18.848;2023-02-21T06:26:19;98080.04;;;6.96;93.38
62436;BME280;48480;50.252;18.848;2023-02-21T06:28:48;98079.30;;;6.98;93.47
62436;BME280;48480;50.252;18.848;2023-02-21T06:31:16;98087.40;;;6.98;93.49
62436;BME280;48480;50.252;18.848;2023-02-21T06:33:42;98092.33;;;6.98;93.55
62436;BME280;48480;50.252;18.848;2023-02-21T06:36:11;98098.42;;;7.01;93.58
62436;BME280;48480;50.252;18.848;2023-02-21T06:38:37;98098.74;;;7.04;93.60
62436;BME280;48480;50.252;18.848;2023-02-21T06:41:14;98099.98;;;7.08;93.56
62436;BME280;48480;50.252;18.848;2023-02-21T06:43:39;98097.15;;;7.09;93.27
62436;BME280;48480;50.252;18.848;2023-02-21T06:46:05;98096.13;;;7.11;93.28
62436;BME280;48480;50.252;18.848;2023-02-21T06:48:30;98096.42;;;7.12;93.24
62436;BME280;48480;50.252;18.848;2023-02-21T06:50:56;98096.55;;;7.14;93.28
62436;BME280;48480;50.252;18.848;2023-02-21T06:53:24;98092.59;;;7.07;93.26
62436;BME280;48480;50.252;18.848;2023-02-21T06:55:55;98099.54;;;7.14;93.33
62436;BME280;48480;50.252;18.848;2023-02-21T06:58:21;98103.48;;;7.16;93.35
62436;BME280;48480;50.252;18.848;2023-02-21T07:00:47;98097.20;;;7.18;93.20
62436;BME280;48480;50.252;18.848;2023-02-21T07:03:14;98108.38;;;7.22;93.22
62436;BME280;48480;50.252;18.848;2023-02-21T07:05:39;98107.05;;;7.26;93.20
62436;BME280;48480;50.252;18.848;2023-02-21T07:08:05;98113.23;;;7.27;93.01
62436;BME280;48480;50.252;18.848;2023-02-21T07:10:31;98113.19;;;7.27;92.85
62436;BME280;48480;50.252;18.848;2023-02-21T07:12:56;98112.02;;;7.26;92.99
62436;BME280;48480;50.252;18.848;2023-02-21T07:15:22;98108.05;;;7.22;93.02
62436;BME280;48480;50.252;18.848;2023-02-21T07:17:47;98120.44;;;7.31;93.05
62436;BME280;48480;50.252;18.848;2023-02-21T07:20:13;98117.02;;;7.31;92.90
62436;BME280;48480;50.252;18.848;2023-02-21T07:22:42;98117.57;;;7.33;92.94
62436;BME280;48480;50.252;18.848;2023-02-21T07:25:13;98121.89;;;7.40;93.00
62436;BME280;48480;50.252;18.848;2023-02-21T07:27:39;98129.08;;;7.44;92.89
62436;BME280;48480;50.252;18.848;2023-02-21T07:30:05;98129.65;;;7.49;92.88
62436;BME280;48480;50.252;18.848;2023-02-21T07:32:32;98133.09;;;7.55;92.63
62436;BME280;48480;50.252;18.848;2023-02-21T07:34:57;98127.50;;;7.56;92.40
62436;BME280;48480;50.252;18.848;2023-02-21T07:37:23;98130.77;;;7.56;92.17
62436;BME280;48480;50.252;18.848;2023-02-21T07:42:20;98132.36;;;7.63;92.20
62436;BME280;48480;50.252;18.848;2023-02-21T07:44:46;98138.39;;;7.66;92.02
62436;BME280;48480;50.252;18.848;2023-02-21T07:47:12;98145.81;;;7.65;91.77
62436;BME280;48480;50.252;18.848;2023-02-21T07:49:39;98141.87;;;7.63;91.66
62436;BME280;48480;50.252;18.848;2023-02-21T07:52:09;98138.77;;;7.65;91.79
62436;BME280;48480;50.252;18.848;2023-02-21T07:54:35;98141.08;;;7.80;92.08
62436;BME280;48480;50.252;18.848;2023-02-21T07:57:00;98140.88;;;7.98;91.84
62436;BME280;48480;50.252;18.848;2023-02-21T07:59:26;98138.04;;;8.08;90.87
62436;BME280;48480;50.252;18.848;2023-02-21T08:01:52;98134.80;;;8.09;90.22
62436;BME280;48480;50.252;18.848;2023-02-21T08:04:18;98127.14;;;8.09;90.20
62436;BME280;48480;50.252;18.848;2023-02-21T08:06:58;98128.36;;;8.08;90.24
62436;BME280;48480;50.252;18.848;2023-02-21T08:09:24;98131.58;;;8.06;90.13
62436;BME280;48480;50.252;18.848;2023-02-21T08:11:50;98128.87;;;8.03;90.28
62436;BME280;48480;50.252;18.848;2023-02-21T08:14:15;98128.07;;;8.05;90.41
62436;BME280;48480;50.252;18.848;2023-02-21T08:16:41;98135.75;;;8.08;90.41
62436;BME280;48480;50.252;18.848;2023-02-21T08:19:10;98134.03;;;8.12;90.45
62436;BME280;48480;50.252;18.848;2023-02-21T08:21:36;98137.44;;;8.15;90.32
62436;BME280;48480;50.252;18.848;2023-02-21T08:24:03;98139.59;;;8.16;90.08
62436;BME280;48480;50.252;18.848;2023-02-21T08:26:29;98138.20;;;8.19;89.82
62436;BME280;48480;50.252;18.848;2023-02-21T08:28:54;98144.54;;;8.17;89.55
62436;BME280;48480;50.252;18.848;2023-02-21T08:31:20;98142.88;;;8.18;89.67
62436;BME280;48480;50.252;18.848;2023-02-21T08:33:49;98142.05;;;8.18;89.72
62436;BME280;48480;50.252;18.848;2023-02-21T08:38:40;98146.66;;;8.21;89.58
62436;BME280;48480;50.252;18.848;2023-02-21T08:41:05;98151.02;;;8.25;89.43
62436;BME280;48480;50.252;18.848;2023-02-21T08:43:33;98146.98;;;8.29;89.30
62436;BME280;48480;50.252;18.848;2023-02-21T08:45:59;98151.69;;;8.28;89.14
62436;BME280;48480;50.252;18.848;2023-02-21T08:48:29;98147.77;;;8.29;89.09
62436;BME280;48480;50.252;18.848;2023-02-21T08:50:54;98153.20;;;8.29;88.98
62436;BME280;48480;50.252;18.848;2023-02-21T08:53:20;98153.79;;;8.32;88.75
62436;BME280;48480;50.252;18.848;2023-02-21T08:55:46;98154.05;;;8.34;88.65
62436;BME280;48480;50.252;18.848;2023-02-21T08:58:12;98155.27;;;8.36;88.45
62436;BME280;48480;50.252;18.848;2023-02-21T09:00:42;98159.86;;;8.38;88.25
62436;BME280;48480;50.252;18.848;2023-02-21T09:05:36;98170.19;;;8.44;88.03
62436;BME280;48480;50.252;18.848;2023-02-21T09:08:03;98168.16;;;8.49;87.95
62436;BME280;48480;50.252;18.848;2023-02-21T09:10:31;98164.95;;;8.55;87.82
62436;BME280;48480;50.252;18.848;2023-02-21T09:13:00;98158.25;;;8.63;87.55
62436;BME280;48480;50.252;18.848;2023-02-21T09:17:55;98161.88;;;8.74;86.75
62436;BME280;48480;50.252;18.848;2023-02-21T09:20:24;98159.23;;;8.87;86.41
62436;BME280;48480;50.252;18.848;2023-02-21T09:22:50;98162.34;;;9.11;86.54
62436;BME280;48480;50.252;18.848;2023-02-21T09:25:18;98164.53;;;9.29;85.69
62436;BME280;48480;50.252;18.848;2023-02-21T09:27:44;98164.66;;;9.33;85.26
62436;BME280;48480;50.252;18.848;2023-02-21T09:30:16;98174.98;;;9.32;84.71
62436;BME280;48480;50.252;18.848;2023-02-21T09:32:43;98175.42;;;9.23;84.77
62436;BME280;48480;50.252;18.848;2023-02-21T09:35:09;98180.60;;;9.20;85.07
62436;BME280;48480;50.252;18.848;2023-02-21T09:37:39;98184.85;;;9.21;85.00
62436;BME280;48480;50.252;18.848;2023-02-21T09:40:24;98182.73;;;9.26;85.06
62436;BME280;48480;50.252;18.848;2023-02-21T09:42:55;98184.59;;;9.30;84.81
62436;BME280;48480;50.252;18.848;2023-02-21T09:45:25;98187.93;;;9.36;84.52
62436;BME280;48480;50.252;18.848;2023-02-21T09:47:53;98183.59;;;9.40;84.21
62436;BME280;48480;50.252;18.848;2023-02-21T09:52:56;98187.86;;;9.44;83.71
62436;BME280;48480;50.252;18.848;2023-02-21T09:55:29;98193.85;;;9.42;84.08
62436;BME280;48480;50.252;18.848;2023-02-21T09:57:56;98190.90;;;9.46;84.37
62436;BME280;48480;50.252;18.848;2023-02-21T10:05:43;98191.14;;;10.06;83.09
62436;BME280;48480;50.252;18.848;2023-02-21T10:08:52;98189.45;;;10.11;82.48
62436;BME280;48480;50.252;18.848;2023-02-21T10:17:02;98184.71;;;10.01;80.63
62436;BME280;48480;50.252;18.848;2023-02-21T10:19:43;98190.71;;;9.94;80.62
62436;BME280;48480;50.252;18.848;2023-02-21T10:24:33;98190.70;;;9.96;80.87
62436;BME280;48480;50.252;18.848;2023-02-21T10:27:03;98193.45;;;9.94;81.08
62436;BME280;48480;50.252;18.848;2023-02-21T10:32:07;98199.66;;;9.96;81.42
62436;BME280;48480;50.252;18.848;2023-02-21T10:34:33;98197.27;;;9.90;81.21
62436;BME280;48480;50.252;18.848;2023-02-21T10:37:11;98197.02;;;9.79;81.65
62436;BME280;48480;50.252;18.848;2023-02-21T10:42:23;98197.39;;;9.63;82.76
62436;BME280;48480;50.252;18.848;2023-02-21T10:44:51;98203.61;;;9.65;82.79
62436;BME280;48480;50.252;18.848;2023-02-21T10:47:21;98198.73;;;9.67;82.53
62436;BME280;48480;50.252;18.848;2023-02-21T10:50:11;98192.64;;;9.84;82.62
62436;BME280;48480;50.252;18.848;2023-02-21T10:52:46;98197.77;;;10.18;82.33
62436;BME280;48480;50.252;18.848;2023-02-21T10:55:21;98199.39;;;10.53;81.29
62436;BME280;48480;50.252;18.848;2023-02-21T11:00:37;98201.14;;;10.70;78.79
62436;BME280;48480;50.252;18.848;2023-02-21T11:05:51;98196.52;;;10.56;78.46
62436;BME280;48480;50.252;18.848;2023-02-21T11:08:39;98187.30;;;10.49;78.63
62436;BME280;48480;50.252;18.848;2023-02-21T11:11:05;98193.01;;;10.36;78.54
62436;BME280;48480;50.252;18.848;2023-02-21T11:13:32;98194.85;;;10.23;78.72
62436;BME280;48480;50.252;18.848;2023-02-21T11:18:36;98205.53;;;10.09;79.33
62436;BME280;48480;50.252;18.848;2023-02-21T11:21:13;98205.05;;;10.13;79.05
62436;BME280;48480;50.252;18.848;2023-02-21T11:24:01;98207.21;;;10.27;79.41
62436;BME280;48480;50.252;18.848;2023-02-21T11:26:37;98206.21;;;10.42;78.24
62436;BME280;48480;50.252;18.848;2023-02-21T11:29:14;98218.05;;;10.54;77.68
62436;BME280;48480;50.252;18.848;2023-02-21T11:31:47;98213.10;;;10.77;76.89
62436;BME280;48480;50.252;18.848;2023-02-21T11:34:13;98212.54;;;10.92;75.80
62436;BME280;48480;50.252;18.848;2023-02-21T11:36:42;98216.06;;;10.94;75.05
62436;BME280;48480;50.252;18.848;2023-02-21T11:39:16;98214.89;;;10.88;74.44
62436;BME280;48480;50.252;18.848;2023-02-21T11:41:59;98216.13;;;10.84;74.99
62436;BME280;48480;50.252;18.848;2023-02-21T11:44:36;98218.65;;;10.82;74.88
62436;BME280;48480;50.252;18.848;2023-02-21T11:54:31;98220.67;;;11.18;74.26
62436;BME280;48480;50.252;18.848;2023-02-21T11:57:15;98221.41;;;11.38;73.53
62436;BME280;48480;50.252;18.848;2023-02-21T12:02:41;98221.11;;;11.75;72.31
62436;BME280;48480;50.252;18.848;2023-02-21T12:16:00;98215.20;;;11.94;66.99
62436;BME280;48480;50.252;18.848;2023-02-21T12:18:38;98214.82;;;11.86;64.92
62436;BME280;48480;50.252;18.848;2023-02-21T12:23:51;98207.52;;;11.92;62.94
62436;BME280;48480;50.252;18.848;2023-02-21T12:32:00;98215.88;;;11.85;62.72
62436;BME280;48480;50.252;18.848;2023-02-21T12:42:42;98214.65;;;11.52;65.85
62436;BME280;48480;50.252;18.848;2023-02-21T12:50:21;98231.48;;;11.07;69.92
62436;BME280;48480;50.252;18.848;2023-02-21T12:53:05;98232.58;;;10.99;70.42
62436;BME280;48480;50.252;18.848;2023-02-21T12:55:41;98234.59;;;10.88;70.06
62436;BME280;48480;50.252;18.848;2023-02-21T13:01:02;98249.83;;;10.59;69.48
62436;BME280;48480;50.252;18.848;2023-02-21T13:03:44;98240.27;;;10.40;70.68
62436;BME280;48480;50.252;18.848;2023-02-21T13:06:35;98241.77;;;10.26;71.48
62436;BME280;48480;50.252;18.848;2023-02-21T13:09:13;98237.56;;;10.19;72.40
62436;BME280;48480;50.252;18.848;2023-02-21T13:14:46;98233.14;;;10.30;74.21
62436;BME280;48480;50.252;18.848;2023-02-21T13:17:15;98221.75;;;10.38;74.63
62436;BME280;48480;50.252;18.848;2023-02-21T13:29:43;98232.33;;;10.58;73.79
62436;BME280;48480;50.252;18.848;2023-02-21T13:32:15;98223.55;;;10.59;73.58
62436;BME280;48480;50.252;18.848;2023-02-21T13:34:48;98226.27;;;10.58;73.21
62436;BME280;48480;50.252;18.848;2023-02-21T13:37:20;98227.23;;;10.56;73.03
62436;BME280;48480;50.252;18.848;2023-02-21T13:39:53;98226.59;;;10.55;73.04
62436;BME280;48480;50.252;18.848;2023-02-21T13:50:45;98232.87;;;10.53;72.18
62436;BME280;48480;50.252;18.848;2023-02-21T13:53:18;98246.14;;;10.47;72.26
62436;BME280;48480;50.252;18.848;2023-02-21T13:58:35;98234.67;;;10.52;71.75
62436;BME280;48480;50.252;18.848;2023-02-21T14:11:25;98232.95;;;10.78;71.55
62436;BME280;48480;50.252;18.848;2023-02-21T14:16:34;98224.69;;;10.74;72.09
62436;BME280;48480;50.252;18.848;2023-02-21T14:19:18;98230.48;;;10.77;72.28
62436;BME280;48480;50.252;18.848;2023-02-21T14:22:14;98227.63;;;10.84;71.70
62436;BME280;48480;50.252;18.848;2023-02-21T14:24:43;98226.91;;;10.87;71.33
62436;BME280;48480;50.252;18.848;2023-02-21T14:45:59;98238.02;;;11.04;68.99
62436;BME280;48480;50.252;18.848;2023-02-21T14:57:26;98231.34;;;11.14;69.51
62436;BME280;48480;50.252;18.848;2023-02-21T15:05:21;98244.32;;;10.99;68.06
62436;BME280;48480;50.252;18.848;2023-02-21T15:10:41;98254.27;;;10.93;68.49
62436;BME280;48480;50.252;18.848;2023-02-21T15:18:28;98261.23;;;10.66;67.87
62436;BME280;48480;50.252;18.848;2023-02-21T15:23:22;98263.08;;;10.46;68.00
62436;BME280;48480;50.252;18.848;2023-02-21T15:26:13;98262.15;;;10.40;68.53
62436;BME280;48480;50.252;18.848;2023-02-21T15:28:40;98267.71;;;10.36;69.08
62436;BME280;48480;50.252;18.848;2023-02-21T15:31:08;98267.80;;;10.31;69.60
62436;BME280;48480;50.252;18.848;2023-02-21T15:33:39;98266.69;;;10.28;70.07
62436;BME280;48480;50.252;18.848;2023-02-21T15:41:14;98268.71;;;10.24;70.63
62436;BME280;48480;50.252;18.848;2023-02-21T15:43:54;98274.45;;;10.24;70.66
62436;BME280;48480;50.252;18.848;2023-02-21T15:46:44;98277.39;;;10.23;70.03
62436;BME280;48480;50.252;18.848;2023-02-21T15:49:21;98281.98;;;10.19;69.51
62436;BME280;48480;50.252;18.848;2023-02-21T15:51:51;98284.58;;;10.12;68.98
62436;BME280;48480;50.252;18.848;2023-02-21T15:54:29;98285.64;;;10.03;69.27
62436;BME280;48480;50.252;18.848;2023-02-21T15:59:31;98292.78;;;9.93;69.50
62436;BME280;48480;50.252;18.848;2023-02-21T16:04:39;98298.21;;;9.74;69.69
62436;BME280;48480;50.252;18.848;2023-02-21T16:07:14;98300.20;;;9.64;69.98
62436;BME280;48480;50.252;18.848;2023-02-21T16:09:46;98304.01;;;9.57;70.20
62436;BME280;48480;50.252;18.848;2023-02-21T16:14:41;98303.77;;;9.48;70.68
62436;BME280;48480;50.252;18.848;2023-02-21T16:17:26;98302.85;;;9.45;70.93
62436;BME280;48480;50.252;18.848;2023-02-21T16:19:55;98307.45;;;9.37;70.98
62436;BME280;48480;50.252;18.848;2023-02-21T16:22:36;98311.87;;;9.30;71.13
62436;BME280;48480;50.252;18.848;2023-02-21T16:25:23;98311.33;;;9.28;71.36
62436;BME280;48480;50.252;18.848;2023-02-21T16:27:55;98315.27;;;9.25;71.67
62436;BME280;48480;50.252;18.848;2023-02-21T16:30:26;98318.56;;;9.20;72.01
62436;BME280;48480;50.252;18.848;2023-02-21T16:32:54;98324.88;;;9.14;72.29
62436;BME280;48480;50.252;18.848;2023-02-21T16:35:24;98326.99;;;9.08;72.62
62436;BME280;48480;50.252;18.848;2023-02-21T16:37:56;98330.36;;;9.01;72.91
62436;BME280;48480;50.252;18.848;2023-02-21T16:40:28;98330.42;;;9.00;73.06
62436;BME280;48480;50.252;18.848;2023-02-21T16:42:55;98332.81;;;9.00;73.20
62436;BME280;48480;50.252;18.848;2023-02-21T16:45:21;98335.68;;;9.01;73.32
62436;BME280;48480;50.252;18.848;2023-02-21T16:47:48;98335.87;;;9.00;73.29